22:34
Airports
History
Links
Donate
Help keep this website running!
PayPal
Bitcoin
This page is community maintained. The information is intended for PC simulator navigation or reference.
Always use approved charts for navigation.
EGMC
Southend
Southend (EGMC)
Southend Airport, United Kingdom
(C)
Lat/Lng:51° 34' 17.19" N / 0° 41' 44.1" E
51.571443 / 0.695583
Elevation:49'ft / 15mMSL
ID / ICAO:EGMC
Runways:1
Longest:06-24
Asphalt 1,593m / 5,227ft
Controlled:Yes
METAR22:20 GMT 2017-09-19
Altimeter: 30.15
Visibility: 6.2 statute miles
Wind: 3 knots (from 240°)
Temp: 7°c / 45°f
Humidity: 87.1%

METAR: EGMC 192220Z 24003KT CAVOK 07/05 Q1021

(Powered by phpweather)
Airport Radio Frequencies
Southend Information: 136.05
Tower: 127.72
Approach: 128.95, 130.77
Nearby VORs <50NM
Nearby NDBs
Runway 06 / 24
Dimensions:1593.2 x 36.9m 5227' x 121'ft
Surface:Asphalt
Edge Lights:High intensity
Runway 06 [A]Runway 24 [B]
Heading:054°TH 234°TH
Lat:
Lng:
51° 34' 2.07"N
0° 41' 10.47"E
51° 34' 32.32"N
0° 42' 17.72"E
ALS:MALSMALS
User Notes and Comments
51° 34' 17.19" N / 0° 41' 44.1" E
Distance To
Airport ID:
Nearby Airports
4 Stoke Airfield 8.9 NM
EG93 SSW 195°
4 Eastchurch 13.1 NM
EGX6 SSE 147°
4 Thurrock 14.3 NM
EGMT W 260°
4 Farthing Corner 17.0 NM
EGMF SSW 193°
4 Rochester 17.3 NM
EGTO SSW 208°
4 Damyns Hall 19.6 NM
EGML W 261°
4 Rayne Hall Farm 22.9 NM
EG83 NNW 341°
VFR Chart
Flight Planning at SkyVector.com